createdAt,value
2023-06-30T00:00:00.412Z,20.02
2023-06-30T00:00:51.360Z,20.03
2023-06-30T00:01:42.174Z,20.02
2023-06-30T00:02:33.061Z,20.05
2023-06-30T00:03:23.981Z,20.02
2023-06-30T00:04:14.885Z,20.00
2023-06-30T00:05:05.636Z,20.03
2023-06-30T00:05:56.428Z,20.03
2023-06-30T00:06:47.210Z,20.05
2023-06-30T00:07:38.156Z,20.03
2023-06-30T00:08:28.976Z,20.05
2023-06-30T00:09:19.805Z,20.05
2023-06-30T00:10:10.584Z,20.03
2023-06-30T00:11:01.380Z,20.03
2023-06-30T00:11:52.158Z,20.05
2023-06-30T00:12:42.984Z,20.05
2023-06-30T00:13:33.748Z,20.05
2023-06-30T00:14:24.557Z,20.05
2023-06-30T00:15:15.339Z,20.06
2023-06-30T00:16:06.191Z,20.09
2023-06-30T00:16:56.941Z,20.10
2023-06-30T00:17:47.882Z,20.09
2023-06-30T00:18:38.603Z,20.10
2023-06-30T00:19:29.393Z,20.10
2023-06-30T00:20:20.187Z,20.09
2023-06-30T00:21:11.088Z,20.10
2023-06-30T00:22:01.860Z,20.09
2023-06-30T00:22:52.659Z,20.10
2023-06-30T00:23:43.436Z,20.06
2023-06-30T00:24:34.244Z,20.05
2023-06-30T00:25:25.040Z,20.06
2023-06-30T00:26:15.832Z,20.02
2023-06-30T00:27:06.619Z,20.03
2023-06-30T00:27:57.409Z,20.03
2023-06-30T00:28:48.190Z,20.03
2023-06-30T00:29:38.996Z,19.98
2023-06-30T00:30:29.781Z,19.98
2023-06-30T00:31:20.612Z,19.97
2023-06-30T00:32:11.372Z,19.97
2023-06-30T00:33:02.303Z,19.95
2023-06-30T00:33:53.050Z,19.95
2023-06-30T00:34:43.840Z,19.93
2023-06-30T00:35:34.622Z,19.91
2023-06-30T00:36:25.425Z,19.91
2023-06-30T00:37:16.209Z,19.86
2023-06-30T00:38:07.028Z,19.87
2023-06-30T00:38:57.794Z,19.88
2023-06-30T00:39:48.613Z,19.87
2023-06-30T00:40:39.404Z,19.86
2023-06-30T00:41:30.273Z,19.87
2023-06-30T00:42:21.056Z,19.84
2023-06-30T00:43:11.848Z,19.80
2023-06-30T00:44:02.675Z,19.79
2023-06-30T00:44:53.564Z,19.79
2023-06-30T00:45:44.655Z,19.80
2023-06-30T00:46:35.687Z,19.76
2023-06-30T00:47:26.492Z,19.80
2023-06-30T00:48:17.335Z,19.79
2023-06-30T00:49:08.096Z,19.79
2023-06-30T00:49:58.923Z,19.78
2023-06-30T00:50:49.709Z,19.79
2023-06-30T00:51:40.585Z,19.76
2023-06-30T00:52:31.361Z,19.79
2023-06-30T00:53:22.170Z,19.73
2023-06-30T00:54:12.947Z,19.78
2023-06-30T00:55:04.084Z,19.75
2023-06-30T00:55:54.870Z,19.78
2023-06-30T00:56:45.743Z,19.76
2023-06-30T00:57:36.520Z,19.76
2023-06-30T00:58:27.321Z,19.76
2023-06-30T00:59:18.107Z,19.72
2023-06-30T01:00:08.930Z,19.69
2023-06-30T01:00:59.714Z,19.68
2023-06-30T01:01:50.600Z,19.68
2023-06-30T01:02:41.448Z,19.63
2023-06-30T01:03:32.443Z,19.63
2023-06-30T01:04:23.343Z,19.61
2023-06-30T01:05:14.189Z,19.58
2023-06-30T01:06:04.971Z,19.58
2023-06-30T01:06:55.901Z,19.57
2023-06-30T01:07:46.690Z,19.54
2023-06-30T01:08:37.533Z,19.54
2023-06-30T01:09:28.341Z,19.57
2023-06-30T01:10:19.154Z,19.55
2023-06-30T01:11:09.932Z,19.54
2023-06-30T01:12:00.809Z,19.55
2023-06-30T01:12:51.584Z,19.54
2023-06-30T01:13:42.383Z,19.53
2023-06-30T01:14:33.158Z,19.54
2023-06-30T01:15:24.001Z,19.51
2023-06-30T01:16:14.832Z,19.50
2023-06-30T01:17:05.669Z,19.53
2023-06-30T01:17:56.452Z,19.50
2023-06-30T01:18:47.252Z,19.50
2023-06-30T01:19:38.013Z,19.51
2023-06-30T01:20:28.838Z,19.51
2023-06-30T01:21:19.621Z,19.47
2023-06-30T01:22:10.497Z,19.48
2023-06-30T01:23:01.286Z,19.46
2023-06-30T01:23:52.183Z,19.48
2023-06-30T01:24:42.968Z,19.51
2023-06-30T01:25:33.855Z,19.48
2023-06-30T01:26:24.697Z,19.50
2023-06-30T01:27:15.552Z,19.47
2023-06-30T01:28:06.226Z,19.48
2023-06-30T01:28:57.363Z,19.47
2023-06-30T01:29:48.144Z,19.47
2023-06-30T01:30:39.047Z,19.48
2023-06-30T01:31:29.796Z,19.48
2023-06-30T01:32:20.663Z,19.47
2023-06-30T01:33:11.386Z,19.47
2023-06-30T01:34:02.262Z,19.46
2023-06-30T01:34:52.975Z,19.48
2023-06-30T01:35:44.177Z,19.43
2023-06-30T01:36:34.995Z,19.48
2023-06-30T01:37:25.869Z,19.46
2023-06-30T01:38:16.644Z,19.47
2023-06-30T01:39:07.441Z,19.46
2023-06-30T01:39:58.228Z,19.46
2023-06-30T01:40:49.024Z,19.42
2023-06-30T01:41:39.812Z,19.42
2023-06-30T01:42:30.608Z,19.43
2023-06-30T01:43:21.398Z,19.40
2023-06-30T01:44:12.191Z,19.40
2023-06-30T01:45:03.042Z,19.43
2023-06-30T01:45:53.875Z,19.42
2023-06-30T01:46:44.782Z,19.46
2023-06-30T01:47:35.711Z,19.42
2023-06-30T01:48:26.488Z,19.42
2023-06-30T01:49:17.386Z,19.43
2023-06-30T01:50:08.144Z,19.46
2023-06-30T01:50:58.926Z,19.46
2023-06-30T01:51:49.700Z,19.43
2023-06-30T01:52:40.516Z,19.43
2023-06-30T01:53:31.292Z,19.42
2023-06-30T01:54:22.095Z,19.43
2023-06-30T01:55:12.884Z,19.42
2023-06-30T01:56:03.790Z,19.38
2023-06-30T01:56:54.588Z,19.38
2023-06-30T01:57:45.468Z,19.39
2023-06-30T01:58:36.246Z,19.35
2023-06-30T01:59:27.048Z,19.33
2023-06-30T02:00:17.846Z,19.31
2023-06-30T02:01:08.763Z,19.29
2023-06-30T02:01:59.461Z,19.29
2023-06-30T02:02:50.469Z,19.29
2023-06-30T02:03:41.143Z,19.25
2023-06-30T02:04:31.911Z,19.25
2023-06-30T02:05:23.067Z,19.28
2023-06-30T02:06:13.883Z,19.28
2023-06-30T02:07:04.673Z,19.28
2023-06-30T02:07:55.465Z,19.25
2023-06-30T02:08:46.298Z,19.25
2023-06-30T02:09:47.279Z,19.24
2023-06-30T02:10:29.066Z,19.21
2023-06-30T02:11:19.253Z,19.21
2023-06-30T02:12:10.011Z,19.21
2023-06-30T02:13:00.836Z,19.21
2023-06-30T02:13:51.590Z,19.21
2023-06-30T02:14:42.413Z,19.21
2023-06-30T02:15:33.201Z,19.20
2023-06-30T02:16:24.034Z,19.20
2023-06-30T02:17:14.980Z,19.18
2023-06-30T02:18:05.791Z,19.21
2023-06-30T02:18:56.539Z,19.21
2023-06-30T02:19:47.396Z,19.20
2023-06-30T02:20:38.335Z,19.18
2023-06-30T02:21:29.254Z,19.14
2023-06-30T02:22:20.123Z,19.15
2023-06-30T02:23:11.049Z,19.14
2023-06-30T02:24:01.918Z,19.13
2023-06-30T02:24:52.824Z,19.13
2023-06-30T02:25:44.116Z,19.11
2023-06-30T02:26:34.712Z,19.11
2023-06-30T02:27:25.530Z,19.10
2023-06-30T02:28:16.411Z,19.11
2023-06-30T02:29:07.213Z,19.11
2023-06-30T02:29:58.424Z,19.11
2023-06-30T02:30:49.280Z,19.11
2023-06-30T02:31:40.240Z,19.11
2023-06-30T02:32:31.362Z,19.13
2023-06-30T02:33:22.172Z,19.14
2023-06-30T02:34:13.036Z,19.17
2023-06-30T02:35:04.115Z,19.15
2023-06-30T02:35:54.971Z,19.14
2023-06-30T02:36:45.846Z,19.18
2023-06-30T02:37:36.716Z,19.15
2023-06-30T02:38:27.545Z,19.15
2023-06-30T02:39:18.579Z,19.15
2023-06-30T02:40:09.569Z,19.17
2023-06-30T02:41:00.427Z,19.18
2023-06-30T02:41:51.426Z,19.18
2023-06-30T02:42:42.297Z,19.20
2023-06-30T02:43:33.203Z,19.18
2023-06-30T02:44:24.066Z,19.20
2023-06-30T02:45:15.014Z,19.18
2023-06-30T02:46:05.907Z,19.20
2023-06-30T02:46:56.779Z,19.20
2023-06-30T02:47:47.660Z,19.17
2023-06-30T02:48:38.576Z,19.17
2023-06-30T02:49:31.066Z,19.14
2023-06-30T02:50:20.392Z,19.14
2023-06-30T02:51:11.244Z,19.14
2023-06-30T02:52:02.138Z,19.14
2023-06-30T02:52:53.021Z,19.15
2023-06-30T02:53:43.922Z,19.14
2023-06-30T02:54:34.787Z,19.15
2023-06-30T02:55:25.733Z,19.15
2023-06-30T02:56:16.609Z,19.18
2023-06-30T02:57:07.489Z,19.17
2023-06-30T02:57:58.386Z,19.20
2023-06-30T02:58:49.285Z,19.15
2023-06-30T02:59:40.143Z,19.15
2023-06-30T03:00:31.098Z,19.17
2023-06-30T03:01:22.044Z,19.17
2023-06-30T03:02:13.092Z,19.15
2023-06-30T03:03:04.074Z,19.15
2023-06-30T03:03:55.096Z,19.17
2023-06-30T03:04:45.953Z,19.15
2023-06-30T03:05:36.883Z,19.15
2023-06-30T03:06:27.724Z,19.15
2023-06-30T03:07:18.655Z,19.15
2023-06-30T03:08:09.496Z,19.17
2023-06-30T03:09:00.417Z,19.15
2023-06-30T03:09:51.292Z,19.17
2023-06-30T03:10:42.241Z,19.18
2023-06-30T03:11:33.157Z,19.15
2023-06-30T03:12:24.078Z,19.14
2023-06-30T03:13:14.961Z,19.14
2023-06-30T03:14:05.866Z,19.14
2023-06-30T03:14:57.460Z,19.11
2023-06-30T03:15:48.165Z,19.13
2023-06-30T03:16:38.806Z,19.13
2023-06-30T03:17:29.806Z,19.08
2023-06-30T03:18:20.638Z,19.08
2023-06-30T03:19:11.543Z,19.05
2023-06-30T03:20:02.420Z,19.06
2023-06-30T03:20:53.339Z,19.02
2023-06-30T03:21:44.191Z,19.01
2023-06-30T03:22:35.111Z,19.02
2023-06-30T03:23:25.990Z,19.01
2023-06-30T03:24:16.915Z,18.98
2023-06-30T03:25:07.805Z,18.98
2023-06-30T03:25:58.699Z,18.98
2023-06-30T03:26:49.582Z,18.97
2023-06-30T03:27:40.569Z,18.94
2023-06-30T03:28:31.475Z,18.94
2023-06-30T03:29:22.368Z,18.92
2023-06-30T03:30:13.255Z,18.95
2023-06-30T03:31:04.263Z,18.94
2023-06-30T03:31:55.140Z,18.95
2023-06-30T03:32:46.123Z,18.97
2023-06-30T03:33:36.952Z,18.95
2023-06-30T03:34:27.934Z,18.94
2023-06-30T03:35:18.843Z,18.94
2023-06-30T03:36:09.731Z,18.91
2023-06-30T03:37:00.584Z,18.94
2023-06-30T03:37:51.496Z,18.92
2023-06-30T03:38:42.372Z,18.92
2023-06-30T03:39:33.286Z,18.91
2023-06-30T03:40:24.255Z,18.94
2023-06-30T03:41:15.207Z,18.94
2023-06-30T03:42:06.042Z,18.95
2023-06-30T03:42:56.959Z,18.94
2023-06-30T03:43:47.858Z,18.98
2023-06-30T03:44:38.756Z,18.95
2023-06-30T03:45:29.634Z,18.98
2023-06-30T03:46:20.570Z,18.97
2023-06-30T03:47:11.426Z,18.99
2023-06-30T03:48:02.443Z,18.99
2023-06-30T03:48:53.277Z,18.98
2023-06-30T03:49:44.214Z,18.99
2023-06-30T03:50:35.099Z,18.99
2023-06-30T03:51:26.039Z,19.01
2023-06-30T03:52:16.888Z,19.02
2023-06-30T03:53:07.787Z,19.02
2023-06-30T03:53:58.669Z,19.05
2023-06-30T03:54:49.573Z,19.06
2023-06-30T03:55:40.461Z,19.08
2023-06-30T03:56:31.362Z,19.06
2023-06-30T03:57:22.234Z,19.08
2023-06-30T03:58:13.150Z,19.08
2023-06-30T03:59:04.057Z,19.11
2023-06-30T03:59:54.934Z,19.10
2023-06-30T04:00:45.835Z,19.10
2023-06-30T04:01:36.729Z,19.10
2023-06-30T04:02:27.795Z,19.08
2023-06-30T04:03:18.908Z,19.08
2023-06-30T04:04:09.935Z,19.08
2023-06-30T04:05:01.002Z,19.10
2023-06-30T04:05:51.844Z,19.11
2023-06-30T04:06:42.830Z,19.10
2023-06-30T04:07:33.757Z,19.11
2023-06-30T04:08:24.819Z,19.11
2023-06-30T04:09:15.665Z,19.13
2023-06-30T04:10:06.608Z,19.14
2023-06-30T04:10:57.502Z,19.13
2023-06-30T04:11:48.470Z,19.17
2023-06-30T04:12:39.360Z,19.15
2023-06-30T04:13:30.258Z,19.13
2023-06-30T04:14:21.168Z,19.15
2023-06-30T04:15:12.093Z,19.17
2023-06-30T04:16:03.002Z,19.17
2023-06-30T04:16:53.933Z,19.15
2023-06-30T04:17:44.863Z,19.18
2023-06-30T04:18:35.723Z,19.15
2023-06-30T04:19:26.626Z,19.15
2023-06-30T04:20:17.533Z,19.14
2023-06-30T04:21:08.413Z,19.17
2023-06-30T04:21:59.872Z,19.17
2023-06-30T04:22:50.360Z,19.15
2023-06-30T04:23:41.286Z,19.17
2023-06-30T04:24:32.182Z,19.17
2023-06-30T04:25:23.105Z,19.17
2023-06-30T04:26:13.993Z,19.18
2023-06-30T04:27:04.961Z,19.17
2023-06-30T04:27:55.861Z,19.14
2023-06-30T04:28:46.866Z,19.14
2023-06-30T04:29:37.753Z,19.17
2023-06-30T04:30:28.677Z,19.15
2023-06-30T04:31:19.624Z,19.14
2023-06-30T04:32:10.552Z,19.15
2023-06-30T04:33:01.516Z,19.15
2023-06-30T04:33:52.519Z,19.15
2023-06-30T04:34:43.419Z,19.14
2023-06-30T04:35:34.420Z,19.18
2023-06-30T04:36:25.315Z,19.17
2023-06-30T04:37:16.340Z,19.15
2023-06-30T04:38:07.315Z,19.17
2023-06-30T04:38:58.361Z,19.15
2023-06-30T04:39:49.282Z,19.17
2023-06-30T04:40:40.219Z,19.15
2023-06-30T04:41:31.124Z,19.15
2023-06-30T04:42:22.087Z,19.18
2023-06-30T04:43:12.974Z,19.18
2023-06-30T04:44:03.969Z,19.18
2023-06-30T04:44:54.868Z,19.21
2023-06-30T04:45:46.136Z,19.18
2023-06-30T04:46:36.689Z,19.18
2023-06-30T04:47:27.671Z,19.18
2023-06-30T04:48:18.534Z,19.17
2023-06-30T04:49:09.530Z,19.17
2023-06-30T04:50:00.427Z,19.14
2023-06-30T04:50:51.342Z,19.15
2023-06-30T04:51:42.237Z,19.11
2023-06-30T04:52:33.241Z,19.08
2023-06-30T04:53:24.120Z,19.06
2023-06-30T04:54:15.091Z,19.06
2023-06-30T04:55:05.983Z,19.06
2023-06-30T04:55:56.906Z,19.05
2023-06-30T04:56:47.798Z,19.02
2023-06-30T04:57:38.776Z,19.01
2023-06-30T04:58:29.693Z,19.01
2023-06-30T04:59:20.657Z,19.01
2023-06-30T05:00:11.555Z,19.02
2023-06-30T05:01:02.544Z,19.01
2023-06-30T05:01:53.503Z,18.98
2023-06-30T05:02:44.455Z,18.99
2023-06-30T05:03:35.362Z,18.98
2023-06-30T05:04:26.331Z,18.95
2023-06-30T05:05:17.263Z,18.98
2023-06-30T05:06:08.247Z,18.97
2023-06-30T05:06:59.222Z,18.97
2023-06-30T05:07:50.228Z,18.98
2023-06-30T05:08:41.114Z,18.98
2023-06-30T05:09:32.092Z,18.99
2023-06-30T05:10:22.992Z,19.01
2023-06-30T05:11:14.011Z,18.99
2023-06-30T05:12:04.938Z,19.01
2023-06-30T05:12:55.874Z,19.01
2023-06-30T05:13:46.783Z,19.05
2023-06-30T05:14:37.762Z,19.02
2023-06-30T05:15:28.687Z,19.02
2023-06-30T05:16:19.719Z,19.01
2023-06-30T05:17:10.659Z,19.02
2023-06-30T05:18:01.700Z,18.99
2023-06-30T05:18:52.535Z,18.99
2023-06-30T05:19:43.431Z,19.01
2023-06-30T05:20:34.335Z,18.97
2023-06-30T05:21:25.320Z,18.99
2023-06-30T05:22:16.213Z,18.98
2023-06-30T05:23:07.254Z,18.98
2023-06-30T05:23:58.114Z,18.99
2023-06-30T05:24:49.094Z,18.98
2023-06-30T05:25:40.024Z,19.01
2023-06-30T05:26:30.983Z,18.99
2023-06-30T05:27:21.902Z,19.02
2023-06-30T05:28:12.879Z,19.02
2023-06-30T05:29:05.336Z,19.01
2023-06-30T05:29:54.766Z,19.05
2023-06-30T05:30:45.688Z,19.01
2023-06-30T05:31:36.806Z,19.02
2023-06-30T05:32:27.699Z,19.02
2023-06-30T05:33:18.643Z,19.05
2023-06-30T05:34:09.546Z,19.05
2023-06-30T05:35:00.566Z,19.06
2023-06-30T05:35:51.432Z,19.05
2023-06-30T05:36:42.418Z,19.02
2023-06-30T05:37:33.303Z,19.05
2023-06-30T05:38:24.233Z,19.02
2023-06-30T05:39:15.104Z,18.99
2023-06-30T05:40:05.996Z,19.02
2023-06-30T05:40:56.896Z,19.02
2023-06-30T05:41:47.892Z,19.05
2023-06-30T05:42:38.776Z,19.02
2023-06-30T05:43:29.666Z,19.02
2023-06-30T05:44:20.605Z,19.02
2023-06-30T05:45:11.557Z,19.02
2023-06-30T05:46:02.445Z,19.01
2023-06-30T05:46:53.427Z,19.02
2023-06-30T05:47:44.313Z,19.05
2023-06-30T05:48:35.236Z,19.01
2023-06-30T05:49:26.125Z,19.01
2023-06-30T05:50:17.123Z,19.02
2023-06-30T05:51:08.036Z,18.99
2023-06-30T05:51:59.083Z,18.99
2023-06-30T05:52:49.925Z,18.98
2023-06-30T05:53:40.923Z,18.97
2023-06-30T05:54:31.795Z,18.95
2023-06-30T05:55:22.800Z,18.97
2023-06-30T05:56:13.707Z,18.92
2023-06-30T05:57:04.675Z,18.91
2023-06-30T05:57:55.576Z,18.94
2023-06-30T05:58:46.569Z,18.91
2023-06-30T05:59:37.477Z,18.90
2023-06-30T06:00:28.474Z,18.90
2023-06-30T06:01:19.367Z,18.91
2023-06-30T06:02:10.365Z,18.92
2023-06-30T06:03:01.335Z,18.90
2023-06-30T06:03:52.477Z,18.92
2023-06-30T06:04:43.021Z,18.92
2023-06-30T06:05:34.256Z,18.92
2023-06-30T06:06:24.662Z,18.91
2023-06-30T06:07:15.650Z,18.91
2023-06-30T06:08:06.499Z,18.94
2023-06-30T06:08:57.520Z,18.92
2023-06-30T06:09:48.398Z,18.94
2023-06-30T06:10:39.447Z,18.92
2023-06-30T06:11:30.293Z,18.92
2023-06-30T06:12:21.279Z,18.92
2023-06-30T06:13:12.276Z,18.94
2023-06-30T06:14:03.275Z,18.87
2023-06-30T06:14:54.182Z,18.90
2023-06-30T06:15:45.384Z,18.87
2023-06-30T06:16:35.806Z,18.90
2023-06-30T06:17:26.753Z,18.90
2023-06-30T06:18:17.640Z,18.90
2023-06-30T06:19:08.626Z,18.91
2023-06-30T06:19:59.553Z,18.87
2023-06-30T06:20:50.544Z,18.87
2023-06-30T06:21:41.415Z,18.91
2023-06-30T06:22:32.413Z,18.90
2023-06-30T06:23:23.302Z,18.87
2023-06-30T06:24:14.211Z,18.90
2023-06-30T06:25:05.155Z,18.90
2023-06-30T06:25:56.093Z,18.86
2023-06-30T06:26:46.963Z,18.86
2023-06-30T06:27:37.878Z,18.86
2023-06-30T06:28:28.754Z,18.86
2023-06-30T06:29:19.673Z,18.84
2023-06-30T06:30:10.543Z,18.84
2023-06-30T06:31:01.500Z,18.84
2023-06-30T06:31:52.363Z,18.84
2023-06-30T06:32:43.350Z,18.86
2023-06-30T06:33:34.212Z,18.84
2023-06-30T06:34:25.130Z,18.84
2023-06-30T06:35:16.012Z,18.86
2023-06-30T06:36:06.943Z,18.86
2023-06-30T06:36:57.821Z,18.86
2023-06-30T06:37:48.820Z,18.90
2023-06-30T06:38:39.681Z,18.86
2023-06-30T06:39:30.609Z,18.86
2023-06-30T06:40:21.459Z,18.87
2023-06-30T06:41:12.406Z,18.87
2023-06-30T06:42:03.291Z,18.86
2023-06-30T06:42:54.260Z,18.87
2023-06-30T06:43:45.168Z,18.90
2023-06-30T06:44:36.894Z,18.90
2023-06-30T06:45:27.258Z,18.87
2023-06-30T06:46:18.242Z,18.90
2023-06-30T06:47:09.111Z,18.90
2023-06-30T06:48:00.077Z,18.92
2023-06-30T06:48:51.018Z,18.91
2023-06-30T06:49:41.927Z,18.92
2023-06-30T06:50:32.823Z,18.92
2023-06-30T06:51:23.854Z,18.92
2023-06-30T06:52:14.736Z,18.91
2023-06-30T06:53:05.701Z,18.92
2023-06-30T06:53:56.605Z,18.94
2023-06-30T06:54:47.620Z,18.95
2023-06-30T06:55:38.501Z,18.94
2023-06-30T06:56:29.506Z,18.94
2023-06-30T06:57:20.413Z,18.95
2023-06-30T06:58:11.373Z,18.94
2023-06-30T06:59:02.281Z,18.95
2023-06-30T06:59:53.259Z,18.98
2023-06-30T07:00:44.168Z,18.97
2023-06-30T07:01:35.222Z,18.99
2023-06-30T07:02:26.139Z,18.98
2023-06-30T07:03:17.064Z,18.97
2023-06-30T07:04:08.024Z,18.97
2023-06-30T07:04:58.939Z,18.97
2023-06-30T07:05:49.839Z,18.98
2023-06-30T07:06:40.745Z,18.95
2023-06-30T07:07:33.702Z,18.97
2023-06-30T07:08:22.406Z,18.95
2023-06-30T07:09:13.296Z,18.97
2023-06-30T07:10:04.311Z,18.95
2023-06-30T07:10:55.192Z,18.95
2023-06-30T07:11:46.100Z,18.97
2023-06-30T07:12:37.013Z,18.95
2023-06-30T07:13:27.966Z,18.91
2023-06-30T07:14:18.845Z,18.94
2023-06-30T07:15:09.750Z,18.92
2023-06-30T07:16:00.685Z,18.91
2023-06-30T07:16:51.714Z,18.90
2023-06-30T07:17:42.655Z,18.91
2023-06-30T07:18:33.747Z,18.92
2023-06-30T07:19:24.763Z,18.91
2023-06-30T07:20:15.731Z,18.91
2023-06-30T07:21:06.643Z,18.92
2023-06-30T07:21:57.659Z,18.94
2023-06-30T07:22:48.550Z,18.95
2023-06-30T07:23:39.502Z,18.97
2023-06-30T07:24:42.074Z,18.95
2023-06-30T07:25:22.374Z,18.98
2023-06-30T07:26:12.026Z,18.95
2023-06-30T07:27:02.969Z,18.97
2023-06-30T07:27:53.894Z,18.95
2023-06-30T07:28:44.872Z,18.97
2023-06-30T07:29:35.770Z,18.97
2023-06-30T07:30:26.768Z,18.98
2023-06-30T07:31:17.765Z,18.98
2023-06-30T07:32:08.848Z,18.97
2023-06-30T07:32:59.791Z,18.98
2023-06-30T07:33:50.740Z,18.99
2023-06-30T07:34:41.670Z,19.02
2023-06-30T07:35:32.621Z,18.99
2023-06-30T07:36:23.536Z,19.01
2023-06-30T07:37:14.512Z,18.99
2023-06-30T07:38:05.482Z,18.99
2023-06-30T07:38:56.403Z,18.99
2023-06-30T07:39:47.315Z,18.98
2023-06-30T07:40:53.892Z,19.02
2023-06-30T07:41:30.285Z,19.05
2023-06-30T07:42:19.975Z,19.05
2023-06-30T07:43:10.884Z,19.06
2023-06-30T07:44:01.872Z,19.05
2023-06-30T07:44:52.781Z,19.05
2023-06-30T07:45:44.067Z,19.06
2023-06-30T07:46:34.611Z,19.10
2023-06-30T07:47:25.618Z,19.08
2023-06-30T07:48:16.635Z,19.14
2023-06-30T07:49:07.633Z,19.17
2023-06-30T07:49:58.532Z,19.17
2023-06-30T07:51:03.397Z,19.21
2023-06-30T07:51:41.449Z,19.25
2023-06-30T07:52:31.204Z,19.31
2023-06-30T07:53:22.146Z,19.32
2023-06-30T07:54:13.101Z,19.38
2023-06-30T07:55:04.009Z,19.43
2023-06-30T07:55:55.065Z,19.47
2023-06-30T07:56:45.903Z,19.51
2023-06-30T07:57:36.878Z,19.54
2023-06-30T07:58:27.789Z,19.58
2023-06-30T07:59:18.774Z,19.63
2023-06-30T08:00:09.686Z,19.66
2023-06-30T08:01:00.654Z,19.69
2023-06-30T08:01:51.582Z,19.73
2023-06-30T08:02:42.608Z,19.73
2023-06-30T08:03:33.709Z,19.76
2023-06-30T08:04:24.667Z,19.79
2023-06-30T08:05:15.233Z,19.84
2023-06-30T08:06:06.430Z,19.80
2023-06-30T08:06:57.476Z,19.84
2023-06-30T08:07:50.872Z,19.86
2023-06-30T08:08:39.348Z,19.88
2023-06-30T08:09:30.310Z,19.91
2023-06-30T08:10:21.241Z,19.97
2023-06-30T08:11:12.215Z,19.97
2023-06-30T08:12:03.131Z,20.02
2023-06-30T08:12:54.081Z,20.09
2023-06-30T08:13:45.020Z,20.10
2023-06-30T08:14:35.972Z,20.12
2023-06-30T08:15:26.897Z,20.16
2023-06-30T08:16:17.950Z,20.18
2023-06-30T08:17:08.838Z,20.24
2023-06-30T08:18:00.238Z,20.25
2023-06-30T08:18:52.156Z,20.31
2023-06-30T08:19:47.267Z,20.35
2023-06-30T08:20:33.599Z,20.39
2023-06-30T08:21:23.517Z,20.39
2023-06-30T08:22:14.423Z,20.42
2023-06-30T08:23:05.420Z,20.46
2023-06-30T08:23:56.342Z,20.49
2023-06-30T08:24:47.305Z,20.50
2023-06-30T08:25:38.241Z,20.53
2023-06-30T08:26:29.249Z,20.56
2023-06-30T08:27:20.159Z,20.58
2023-06-30T08:28:11.097Z,20.59
2023-06-30T08:29:01.998Z,20.59
2023-06-30T08:29:52.983Z,20.61
2023-06-30T08:30:43.914Z,20.59
2023-06-30T08:31:34.946Z,20.61
2023-06-30T08:32:25.831Z,20.62
2023-06-30T08:33:30.616Z,20.59
2023-06-30T08:34:08.669Z,20.62
2023-06-30T08:34:58.582Z,20.61
2023-06-30T08:35:49.465Z,20.62
2023-06-30T08:36:40.462Z,20.61
2023-06-30T08:37:31.384Z,20.64
2023-06-30T08:38:22.425Z,20.62
2023-06-30T08:39:13.346Z,20.68
2023-06-30T08:40:04.311Z,20.66
2023-06-30T08:40:55.228Z,20.66
2023-06-30T08:41:46.355Z,20.68
2023-06-30T08:42:37.196Z,20.66
2023-06-30T08:43:28.210Z,20.69
2023-06-30T08:44:19.110Z,20.74
2023-06-30T08:45:10.081Z,20.69
2023-06-30T08:46:00.987Z,20.76
2023-06-30T08:46:52.071Z,20.74
2023-06-30T08:47:43.130Z,20.79
2023-06-30T08:48:34.168Z,20.77
2023-06-30T08:49:25.090Z,20.81
2023-06-30T08:50:16.063Z,20.86
2023-06-30T08:51:06.985Z,20.90
2023-06-30T08:51:57.974Z,20.89
2023-06-30T08:52:48.903Z,20.93
2023-06-30T08:53:39.839Z,20.93
2023-06-30T08:54:30.760Z,20.98
2023-06-30T08:55:21.729Z,20.96
2023-06-30T08:56:12.668Z,20.99
2023-06-30T08:57:03.635Z,20.99
2023-06-30T08:57:54.528Z,21.01
2023-06-30T08:58:45.508Z,21.02
2023-06-30T08:59:36.435Z,21.01
2023-06-30T09:00:27.431Z,21.05
2023-06-30T09:01:18.428Z,21.05
2023-06-30T09:02:09.431Z,21.05
2023-06-30T09:03:00.383Z,21.06
2023-06-30T09:03:51.508Z,21.11
2023-06-30T09:04:42.522Z,21.11
2023-06-30T09:05:33.475Z,21.11
2023-06-30T09:06:24.411Z,21.09
2023-06-30T09:07:15.406Z,21.14
2023-06-30T09:08:06.303Z,21.14
2023-06-30T09:08:57.299Z,21.19
2023-06-30T09:09:48.203Z,21.21
2023-06-30T09:10:39.145Z,21.24
2023-06-30T09:11:30.067Z,21.26
2023-06-30T09:12:21.050Z,21.26
2023-06-30T09:13:11.961Z,21.27
2023-06-30T09:14:02.946Z,21.29
2023-06-30T09:14:53.874Z,21.32
2023-06-30T09:15:45.208Z,21.30
2023-06-30T09:16:35.670Z,21.32
2023-06-30T09:17:26.637Z,21.35
2023-06-30T09:18:17.525Z,21.35
2023-06-30T09:19:08.488Z,21.38
2023-06-30T09:19:59.454Z,21.36
2023-06-30T09:20:50.551Z,21.36
2023-06-30T09:21:41.478Z,21.36
2023-06-30T09:22:54.810Z,21.39
2023-06-30T09:23:24.532Z,21.42
2023-06-30T09:24:14.252Z,21.44
2023-06-30T09:25:05.308Z,21.48
2023-06-30T09:25:56.240Z,21.51
2023-06-30T09:26:47.198Z,21.56
2023-06-30T09:27:38.177Z,21.56
2023-06-30T09:28:29.160Z,21.61
2023-06-30T09:29:20.084Z,21.63
2023-06-30T09:30:11.126Z,21.67
2023-06-30T09:31:02.050Z,21.69
2023-06-30T09:31:53.088Z,21.71
2023-06-30T09:32:44.015Z,21.74
2023-06-30T09:33:35.007Z,21.74
2023-06-30T09:34:25.941Z,21.75
2023-06-30T09:35:16.873Z,21.74
2023-06-30T09:36:07.795Z,21.78
2023-06-30T09:36:58.817Z,21.72
2023-06-30T09:37:49.739Z,21.75
2023-06-30T09:38:40.776Z,21.72
2023-06-30T09:39:31.699Z,21.72
2023-06-30T09:40:22.676Z,21.74
2023-06-30T09:41:13.591Z,21.75
2023-06-30T09:42:04.584Z,21.82
2023-06-30T09:42:55.646Z,21.82
2023-06-30T09:43:46.549Z,21.90
2023-06-30T09:44:37.491Z,21.92
2023-06-30T09:45:29.462Z,21.95
2023-06-30T09:46:19.225Z,21.98
2023-06-30T09:47:10.150Z,22.02
2023-06-30T09:48:01.124Z,22.06
2023-06-30T09:48:52.112Z,22.09
2023-06-30T09:49:43.089Z,22.12
2023-06-30T09:50:34.224Z,22.12
2023-06-30T09:51:25.195Z,22.14
2023-06-30T09:52:16.129Z,22.17
2023-06-30T09:53:07.059Z,22.17
2023-06-30T09:53:58.122Z,22.19
2023-06-30T09:54:49.036Z,22.19
2023-06-30T09:55:40.080Z,22.19
2023-06-30T09:56:30.671Z,22.20
2023-06-30T09:57:21.681Z,22.20
2023-06-30T09:58:12.632Z,22.22
2023-06-30T09:59:03.569Z,22.25
2023-06-30T09:59:54.500Z,22.25
2023-06-30T10:00:45.554Z,22.23
2023-06-30T10:01:36.581Z,22.28
2023-06-30T10:02:27.618Z,22.29
2023-06-30T10:03:18.929Z,22.31
2023-06-30T10:04:09.321Z,22.28
2023-06-30T10:05:00.265Z,22.23
2023-06-30T10:05:51.211Z,22.23
2023-06-30T10:06:42.129Z,22.20
2023-06-30T10:07:33.126Z,22.20
2023-06-30T10:08:24.016Z,22.17
2023-06-30T10:09:14.984Z,22.19
2023-06-30T10:10:05.912Z,22.16
2023-06-30T10:10:56.944Z,22.13
2023-06-30T10:11:47.835Z,22.17
2023-06-30T10:12:38.868Z,22.16
2023-06-30T10:13:29.798Z,22.16
2023-06-30T10:14:20.760Z,22.14
2023-06-30T10:15:11.704Z,22.17
2023-06-30T10:16:02.651Z,22.17
2023-06-30T10:16:53.627Z,22.17
2023-06-30T10:17:44.772Z,22.19
2023-06-30T10:18:35.738Z,22.17
2023-06-30T10:19:26.631Z,22.19
2023-06-30T10:20:17.538Z,22.17
2023-06-30T10:21:08.515Z,22.17
2023-06-30T10:21:59.449Z,22.16
2023-06-30T10:22:50.407Z,22.22
2023-06-30T10:23:41.339Z,22.17
2023-06-30T10:24:32.296Z,22.19
2023-06-30T10:25:23.249Z,22.28
2023-06-30T10:26:14.186Z,22.34
2023-06-30T10:27:05.152Z,22.34
2023-06-30T10:27:56.176Z,22.41
2023-06-30T10:28:47.180Z,22.44
2023-06-30T10:29:38.296Z,22.43
2023-06-30T10:30:29.236Z,22.43
2023-06-30T10:31:20.267Z,22.44
2023-06-30T10:32:11.218Z,22.46
2023-06-30T10:33:02.358Z,22.47
2023-06-30T10:33:55.436Z,22.52
2023-06-30T10:34:44.248Z,22.59
2023-06-30T10:35:35.186Z,22.65
2023-06-30T10:36:26.148Z,22.68
2023-06-30T10:37:17.066Z,22.65
2023-06-30T10:38:08.023Z,22.67
2023-06-30T10:38:58.948Z,22.62
2023-06-30T10:39:49.913Z,22.62
2023-06-30T10:40:40.852Z,22.67
2023-06-30T10:41:31.805Z,22.69
2023-06-30T10:42:22.748Z,22.75
2023-06-30T10:43:13.694Z,22.82
2023-06-30T10:44:04.702Z,22.89
2023-06-30T10:44:55.686Z,22.96
2023-06-30T10:45:46.740Z,23.02
2023-06-30T10:46:37.714Z,23.01
2023-06-30T10:47:28.634Z,23.02
2023-06-30T10:48:19.569Z,23.07
2023-06-30T10:49:10.508Z,23.12
2023-06-30T10:50:01.453Z,23.14
2023-06-30T10:50:52.418Z,23.24
2023-06-30T10:51:43.343Z,23.20
2023-06-30T10:52:34.277Z,23.24
2023-06-30T10:53:25.238Z,23.26
2023-06-30T10:54:16.148Z,23.22
2023-06-30T10:55:07.185Z,23.22